sensor_id;sensor_type;location;lat;lon;timestamp;temperature;humidity
73643;DHT22;61938;48.652;9.292;2023-04-25T00:02:02;7.60;99.90
73643;DHT22;61938;48.652;9.292;2023-04-25T00:04:28;7.60;99.90
73643;DHT22;61938;48.652;9.292;2023-04-25T00:06:55;7.60;99.90
73643;DHT22;61938;48.652;9.292;2023-04-25T00:09:21;7.60;99.90
73643;DHT22;61938;48.652;9.292;2023-04-25T00:11:47;7.60;99.90
73643;DHT22;61938;48.652;9.292;2023-04-25T00:14:13;7.50;99.90
73643;DHT22;61938;48.652;9.292;2023-04-25T00:16:39;7.50;99.90
73643;DHT22;61938;48.652;9.292;2023-04-25T00:19:06;7.50;99.90
73643;DHT22;61938;48.652;9.292;2023-04-25T00:21:33;7.50;99.90
73643;DHT22;61938;48.652;9.292;2023-04-25T00:23:59;7.50;99.90
73643;DHT22;61938;48.652;9.292;2023-04-25T00:26:25;7.40;99.90
73643;DHT22;61938;48.652;9.292;2023-04-25T00:28:51;7.50;99.90
73643;DHT22;61938;48.652;9.292;2023-04-25T00:31:16;7.50;99.90
73643;DHT22;61938;48.652;9.292;2023-04-25T00:33:42;7.40;99.90
73643;DHT22;61938;48.652;9.292;2023-04-25T00:36:07;7.40;99.90
73643;DHT22;61938;48.652;9.292;2023-04-25T00:38:33;7.40;99.90
73643;DHT22;61938;48.652;9.292;2023-04-25T00:40:58;7.40;99.90
73643;DHT22;61938;48.652;9.292;2023-04-25T00:43:28;7.40;99.90
73643;DHT22;61938;48.652;9.292;2023-04-25T00:45:56;7.40;99.90
73643;DHT22;61938;48.652;9.292;2023-04-25T00:48:22;7.40;99.90
73643;DHT22;61938;48.652;9.292;2023-04-25T00:50:52;7.40;99.90
73643;DHT22;61938;48.652;9.292;2023-04-25T00:53:20;7.40;99.90
73643;DHT22;61938;48.652;9.292;2023-04-25T00:55:45;7.40;99.90
73643;DHT22;61938;48.652;9.292;2023-04-25T00:58:11;7.40;99.90
73643;DHT22;61938;48.652;9.292;2023-04-25T01:00:37;7.40;99.90
73643;DHT22;61938;48.652;9.292;2023-04-25T01:03:03;7.30;99.90
73643;DHT22;61938;48.652;9.292;2023-04-25T01:05:29;7.40;99.90
73643;DHT22;61938;48.652;9.292;2023-04-25T01:07:54;7.40;99.90
73643;DHT22;61938;48.652;9.292;2023-04-25T01:10:21;7.40;99.90
73643;DHT22;61938;48.652;9.292;2023-04-25T01:12:46;7.40;99.90
73643;DHT22;61938;48.652;9.292;2023-04-25T01:15:12;7.50;99.90
73643;DHT22;61938;48.652;9.292;2023-04-25T01:17:38;7.40;99.90
73643;DHT22;61938;48.652;9.292;2023-04-25T01:20:05;7.40;99.90
73643;DHT22;61938;48.652;9.292;2023-04-25T01:22:32;7.40;99.90
73643;DHT22;61938;48.652;9.292;2023-04-25T01:24:59;7.40;99.90
73643;DHT22;61938;48.652;9.292;2023-04-25T01:27:25;7.50;99.90
73643;DHT22;61938;48.652;9.292;2023-04-25T01:29:51;7.50;99.90
73643;DHT22;61938;48.652;9.292;2023-04-25T01:32:17;7.40;99.90
73643;DHT22;61938;48.652;9.292;2023-04-25T01:34:43;7.40;99.90
73643;DHT22;61938;48.652;9.292;2023-04-25T01:37:08;7.40;99.90
73643;DHT22;61938;48.652;9.292;2023-04-25T01:39:34;7.40;99.90
73643;DHT22;61938;48.652;9.292;2023-04-25T01:42:00;7.40;99.90
73643;DHT22;61938;48.652;9.292;2023-04-25T01:44:26;7.40;99.90
73643;DHT22;61938;48.652;9.292;2023-04-25T01:46:53;7.40;99.90
73643;DHT22;61938;48.652;9.292;2023-04-25T01:49:19;7.50;99.90
73643;DHT22;61938;48.652;9.292;2023-04-25T01:51:44;7.40;99.90
73643;DHT22;61938;48.652;9.292;2023-04-25T01:54:10;7.50;99.90
73643;DHT22;61938;48.652;9.292;2023-04-25T01:56:37;7.40;99.90
73643;DHT22;61938;48.652;9.292;2023-04-25T01:59:05;7.40;99.90
73643;DHT22;61938;48.652;9.292;2023-04-25T02:01:30;7.50;99.90
73643;DHT22;61938;48.652;9.292;2023-04-25T02:03:56;7.50;99.90
73643;DHT22;61938;48.652;9.292;2023-04-25T02:06:21;7.40;99.90
73643;DHT22;61938;48.652;9.292;2023-04-25T02:08:47;7.40;99.90
73643;DHT22;61938;48.652;9.292;2023-04-25T02:11:13;7.40;99.90
73643;DHT22;61938;48.652;9.292;2023-04-25T02:13:38;7.40;99.90
73643;DHT22;61938;48.652;9.292;2023-04-25T02:16:04;7.40;99.90
73643;DHT22;61938;48.652;9.292;2023-04-25T02:18:29;7.40;99.90
73643;DHT22;61938;48.652;9.292;2023-04-25T02:20:57;7.40;99.90
73643;DHT22;61938;48.652;9.292;2023-04-25T02:23:23;7.40;99.90
73643;DHT22;61938;48.652;9.292;2023-04-25T02:25:48;7.40;99.90
73643;DHT22;61938;48.652;9.292;2023-04-25T02:28:14;7.30;99.90
73643;DHT22;61938;48.652;9.292;2023-04-25T02:30:39;7.30;99.90
73643;DHT22;61938;48.652;9.292;2023-04-25T02:33:05;7.30;99.90
73643;DHT22;61938;48.652;9.292;2023-04-25T02:35:30;7.30;99.90
73643;DHT22;61938;48.652;9.292;2023-04-25T02:37:56;7.30;99.90
73643;DHT22;61938;48.652;9.292;2023-04-25T02:40:21;7.20;99.90
73643;DHT22;61938;48.652;9.292;2023-04-25T02:42:47;7.20;99.90
73643;DHT22;61938;48.652;9.292;2023-04-25T02:45:12;7.20;99.90
73643;DHT22;61938;48.652;9.292;2023-04-25T02:47:38;7.20;99.90
73643;DHT22;61938;48.652;9.292;2023-04-25T02:50:04;7.20;99.90
73643;DHT22;61938;48.652;9.292;2023-04-25T02:52:30;7.10;99.90
73643;DHT22;61938;48.652;9.292;2023-04-25T02:54:56;7.10;99.90
73643;DHT22;61938;48.652;9.292;2023-04-25T02:57:21;7.10;99.90
73643;DHT22;61938;48.652;9.292;2023-04-25T02:59:47;7.10;99.90
73643;DHT22;61938;48.652;9.292;2023-04-25T03:02:12;7.10;99.90
73643;DHT22;61938;48.652;9.292;2023-04-25T03:04:38;7.10;99.90
73643;DHT22;61938;48.652;9.292;2023-04-25T03:07:04;7.00;99.90
73643;DHT22;61938;48.652;9.292;2023-04-25T03:09:29;7.00;99.90
73643;DHT22;61938;48.652;9.292;2023-04-25T03:11:55;7.00;99.90
73643;DHT22;61938;48.652;9.292;2023-04-25T03:14:20;7.00;99.90
73643;DHT22;61938;48.652;9.292;2023-04-25T03:16:46;7.00;99.90
73643;DHT22;61938;48.652;9.292;2023-04-25T03:19:11;6.90;99.90
73643;DHT22;61938;48.652;9.292;2023-04-25T03:21:37;7.00;99.90
73643;DHT22;61938;48.652;9.292;2023-04-25T03:24:04;7.00;99.90
73643;DHT22;61938;48.652;9.292;2023-04-25T03:26:30;6.90;99.90
73643;DHT22;61938;48.652;9.292;2023-04-25T03:28:55;6.90;99.90
73643;DHT22;61938;48.652;9.292;2023-04-25T03:31:21;6.80;99.90
73643;DHT22;61938;48.652;9.292;2023-04-25T03:33:47;6.80;99.90
73643;DHT22;61938;48.652;9.292;2023-04-25T03:36:13;6.90;99.90
73643;DHT22;61938;48.652;9.292;2023-04-25T03:38:38;6.80;99.90
73643;DHT22;61938;48.652;9.292;2023-04-25T03:41:04;6.80;99.90
73643;DHT22;61938;48.652;9.292;2023-04-25T03:43:29;6.90;99.90
73643;DHT22;61938;48.652;9.292;2023-04-25T03:45:55;6.90;99.90
73643;DHT22;61938;48.652;9.292;2023-04-25T03:48:21;6.90;99.90
73643;DHT22;61938;48.652;9.292;2023-04-25T03:50:47;6.90;99.90
73643;DHT22;61938;48.652;9.292;2023-04-25T03:53:13;6.90;99.90
73643;DHT22;61938;48.652;9.292;2023-04-25T03:55:38;6.80;99.90
73643;DHT22;61938;48.652;9.292;2023-04-25T03:58:04;6.80;99.90
73643;DHT22;61938;48.652;9.292;2023-04-25T04:00:30;6.90;99.90
73643;DHT22;61938;48.652;9.292;2023-04-25T04:02:55;6.90;99.90
73643;DHT22;61938;48.652;9.292;2023-04-25T04:05:21;6.90;99.90
73643;DHT22;61938;48.652;9.292;2023-04-25T04:07:47;6.90;99.90
73643;DHT22;61938;48.652;9.292;2023-04-25T04:10:13;6.80;99.90
73643;DHT22;61938;48.652;9.292;2023-04-25T04:12:38;6.80;99.90
73643;DHT22;61938;48.652;9.292;2023-04-25T04:15:05;6.80;99.90
73643;DHT22;61938;48.652;9.292;2023-04-25T04:17:31;6.70;99.90
73643;DHT22;61938;48.652;9.292;2023-04-25T04:19:57;6.70;99.90
73643;DHT22;61938;48.652;9.292;2023-04-25T04:22:23;6.80;99.90
73643;DHT22;61938;48.652;9.292;2023-04-25T04:24:49;6.70;99.90
73643;DHT22;61938;48.652;9.292;2023-04-25T04:27:18;6.80;99.90
73643;DHT22;61938;48.652;9.292;2023-04-25T04:29:45;6.80;99.90
73643;DHT22;61938;48.652;9.292;2023-04-25T04:32:11;6.80;99.90
73643;DHT22;61938;48.652;9.292;2023-04-25T04:34:37;6.80;99.90
73643;DHT22;61938;48.652;9.292;2023-04-25T04:37:04;6.80;99.90
73643;DHT22;61938;48.652;9.292;2023-04-25T04:39:31;6.80;99.90
73643;DHT22;61938;48.652;9.292;2023-04-25T04:41:56;6.90;99.90
73643;DHT22;61938;48.652;9.292;2023-04-25T04:44:22;6.90;99.90
73643;DHT22;61938;48.652;9.292;2023-04-25T04:46:48;6.80;99.90
73643;DHT22;61938;48.652;9.292;2023-04-25T04:49:13;6.90;99.90
73643;DHT22;61938;48.652;9.292;2023-04-25T04:51:39;6.90;99.90
73643;DHT22;61938;48.652;9.292;2023-04-25T04:54:06;6.90;99.90
73643;DHT22;61938;48.652;9.292;2023-04-25T04:56:32;6.90;99.90
73643;DHT22;61938;48.652;9.292;2023-04-25T04:58:58;6.90;99.90
73643;DHT22;61938;48.652;9.292;2023-04-25T05:01:24;6.90;99.90
73643;DHT22;61938;48.652;9.292;2023-04-25T05:03:50;7.00;99.90
73643;DHT22;61938;48.652;9.292;2023-04-25T05:06:18;7.00;99.90
73643;DHT22;61938;48.652;9.292;2023-04-25T05:08:43;7.10;99.90
73643;DHT22;61938;48.652;9.292;2023-04-25T05:11:09;7.10;99.90
73643;DHT22;61938;48.652;9.292;2023-04-25T05:13:35;7.20;99.90
73643;DHT22;61938;48.652;9.292;2023-04-25T05:16:00;7.20;99.90
73643;DHT22;61938;48.652;9.292;2023-04-25T05:18:26;7.30;99.90
73643;DHT22;61938;48.652;9.292;2023-04-25T05:20:51;7.30;99.90
73643;DHT22;61938;48.652;9.292;2023-04-25T05:23:18;7.40;99.90
73643;DHT22;61938;48.652;9.292;2023-04-25T05:25:44;7.50;99.90
73643;DHT22;61938;48.652;9.292;2023-04-25T05:28:11;7.50;99.90
73643;DHT22;61938;48.652;9.292;2023-04-25T05:30:37;7.50;99.90
73643;DHT22;61938;48.652;9.292;2023-04-25T05:33:02;7.50;99.90
73643;DHT22;61938;48.652;9.292;2023-04-25T05:35:28;7.60;99.90
73643;DHT22;61938;48.652;9.292;2023-04-25T05:37:54;7.60;99.90
73643;DHT22;61938;48.652;9.292;2023-04-25T05:40:19;7.70;99.90
73643;DHT22;61938;48.652;9.292;2023-04-25T05:42:45;7.60;99.90
73643;DHT22;61938;48.652;9.292;2023-04-25T05:45:10;7.60;99.90
73643;DHT22;61938;48.652;9.292;2023-04-25T05:47:36;7.50;99.90
73643;DHT22;61938;48.652;9.292;2023-04-25T05:50:01;7.50;99.90
73643;DHT22;61938;48.652;9.292;2023-04-25T05:52:27;7.50;99.90
73643;DHT22;61938;48.652;9.292;2023-04-25T05:54:52;7.50;99.90
73643;DHT22;61938;48.652;9.292;2023-04-25T05:57:25;7.40;99.90
73643;DHT22;61938;48.652;9.292;2023-04-25T05:59:51;7.50;99.90
73643;DHT22;61938;48.652;9.292;2023-04-25T06:02:18;7.50;99.90
73643;DHT22;61938;48.652;9.292;2023-04-25T06:04:43;7.50;99.90
73643;DHT22;61938;48.652;9.292;2023-04-25T06:07:09;7.40;99.90
73643;DHT22;61938;48.652;9.292;2023-04-25T06:09:35;7.40;99.90
73643;DHT22;61938;48.652;9.292;2023-04-25T06:12:00;7.50;99.90
73643;DHT22;61938;48.652;9.292;2023-04-25T06:14:26;7.50;99.90
73643;DHT22;61938;48.652;9.292;2023-04-25T06:16:52;7.60;99.90
73643;DHT22;61938;48.652;9.292;2023-04-25T06:19:18;7.60;99.90
73643;DHT22;61938;48.652;9.292;2023-04-25T06:21:44;7.80;99.90
73643;DHT22;61938;48.652;9.292;2023-04-25T06:24:09;7.90;99.90
73643;DHT22;61938;48.652;9.292;2023-04-25T06:26:35;8.10;99.90
73643;DHT22;61938;48.652;9.292;2023-04-25T06:29:01;8.20;99.90
73643;DHT22;61938;48.652;9.292;2023-04-25T06:31:26;8.30;99.90
73643;DHT22;61938;48.652;9.292;2023-04-25T06:33:52;8.40;99.90
73643;DHT22;61938;48.652;9.292;2023-04-25T06:36:20;8.50;99.90
73643;DHT22;61938;48.652;9.292;2023-04-25T06:38:50;8.60;99.90
73643;DHT22;61938;48.652;9.292;2023-04-25T06:41:16;8.80;99.90
73643;DHT22;61938;48.652;9.292;2023-04-25T06:43:41;8.80;99.90
73643;DHT22;61938;48.652;9.292;2023-04-25T06:46:07;8.80;99.90
73643;DHT22;61938;48.652;9.292;2023-04-25T06:48:32;8.70;99.90
73643;DHT22;61938;48.652;9.292;2023-04-25T06:50:58;8.70;99.90
73643;DHT22;61938;48.652;9.292;2023-04-25T06:53:23;8.60;99.90
73643;DHT22;61938;48.652;9.292;2023-04-25T06:55:49;8.60;99.90
73643;DHT22;61938;48.652;9.292;2023-04-25T06:58:15;8.50;99.90
73643;DHT22;61938;48.652;9.292;2023-04-25T07:00:40;8.50;99.90
73643;DHT22;61938;48.652;9.292;2023-04-25T07:03:06;8.50;99.90
73643;DHT22;61938;48.652;9.292;2023-04-25T07:05:31;8.40;99.90
73643;DHT22;61938;48.652;9.292;2023-04-25T07:07:57;8.40;99.90
73643;DHT22;61938;48.652;9.292;2023-04-25T07:10:22;8.30;99.90
73643;DHT22;61938;48.652;9.292;2023-04-25T07:12:48;8.30;99.90
73643;DHT22;61938;48.652;9.292;2023-04-25T07:15:13;8.30;99.90
73643;DHT22;61938;48.652;9.292;2023-04-25T07:17:39;8.20;99.90
73643;DHT22;61938;48.652;9.292;2023-04-25T07:20:05;8.20;99.90
73643;DHT22;61938;48.652;9.292;2023-04-25T07:22:32;8.20;99.90
73643;DHT22;61938;48.652;9.292;2023-04-25T07:24:57;8.20;99.90
73643;DHT22;61938;48.652;9.292;2023-04-25T07:27:23;8.20;99.90
73643;DHT22;61938;48.652;9.292;2023-04-25T07:29:48;8.10;99.90
73643;DHT22;61938;48.652;9.292;2023-04-25T07:32:14;8.10;99.90
73643;DHT22;61938;48.652;9.292;2023-04-25T07:34:39;8.10;99.90
73643;DHT22;61938;48.652;9.292;2023-04-25T07:37:05;8.10;99.90
73643;DHT22;61938;48.652;9.292;2023-04-25T07:39:31;8.10;99.90
73643;DHT22;61938;48.652;9.292;2023-04-25T07:41:56;8.10;99.90
73643;DHT22;61938;48.652;9.292;2023-04-25T07:44:24;8.20;99.90
73643;DHT22;61938;48.652;9.292;2023-04-25T07:46:49;8.20;99.90
73643;DHT22;61938;48.652;9.292;2023-04-25T07:49:15;8.10;99.90
73643;DHT22;61938;48.652;9.292;2023-04-25T07:51:41;8.10;99.90
73643;DHT22;61938;48.652;9.292;2023-04-25T07:54:09;8.10;99.90
73643;DHT22;61938;48.652;9.292;2023-04-25T07:56:34;8.10;99.90
73643;DHT22;61938;48.652;9.292;2023-04-25T07:59:00;8.00;99.90
73643;DHT22;61938;48.652;9.292;2023-04-25T08:01:26;8.00;99.90
73643;DHT22;61938;48.652;9.292;2023-04-25T08:03:52;8.00;99.90
73643;DHT22;61938;48.652;9.292;2023-04-25T08:06:18;8.00;99.90
73643;DHT22;61938;48.652;9.292;2023-04-25T08:08:43;8.00;99.90
73643;DHT22;61938;48.652;9.292;2023-04-25T08:11:09;8.00;99.90
73643;DHT22;61938;48.652;9.292;2023-04-25T08:13:34;8.00;99.90
73643;DHT22;61938;48.652;9.292;2023-04-25T08:16:00;7.90;99.90
73643;DHT22;61938;48.652;9.292;2023-04-25T08:18:25;7.90;99.90
73643;DHT22;61938;48.652;9.292;2023-04-25T08:20:51;7.90;99.90
73643;DHT22;61938;48.652;9.292;2023-04-25T08:23:17;7.90;99.90
73643;DHT22;61938;48.652;9.292;2023-04-25T08:25:42;7.90;99.90
73643;DHT22;61938;48.652;9.292;2023-04-25T08:28:08;7.80;99.90
73643;DHT22;61938;48.652;9.292;2023-04-25T08:30:33;7.80;99.90
73643;DHT22;61938;48.652;9.292;2023-04-25T08:32:59;7.80;99.90
73643;DHT22;61938;48.652;9.292;2023-04-25T08:35:24;7.80;99.90
73643;DHT22;61938;48.652;9.292;2023-04-25T08:37:50;7.80;99.90
73643;DHT22;61938;48.652;9.292;2023-04-25T08:40:16;7.80;99.90
73643;DHT22;61938;48.652;9.292;2023-04-25T08:42:42;7.80;99.90
73643;DHT22;61938;48.652;9.292;2023-04-25T08:45:08;7.80;99.90
73643;DHT22;61938;48.652;9.292;2023-04-25T08:47:35;7.80;99.90
73643;DHT22;61938;48.652;9.292;2023-04-25T08:50:04;7.80;99.90
73643;DHT22;61938;48.652;9.292;2023-04-25T08:52:42;7.80;99.90
73643;DHT22;61938;48.652;9.292;2023-04-25T08:55:09;7.80;99.90
73643;DHT22;61938;48.652;9.292;2023-04-25T08:57:35;7.80;99.90
73643;DHT22;61938;48.652;9.292;2023-04-25T09:00:01;7.80;99.90
73643;DHT22;61938;48.652;9.292;2023-04-25T09:02:27;7.70;99.90
73643;DHT22;61938;48.652;9.292;2023-04-25T09:04:54;7.70;99.90
73643;DHT22;61938;48.652;9.292;2023-04-25T09:07:20;7.60;99.90
73643;DHT22;61938;48.652;9.292;2023-04-25T09:09:46;7.60;99.90
73643;DHT22;61938;48.652;9.292;2023-04-25T09:12:12;7.50;99.90
73643;DHT22;61938;48.652;9.292;2023-04-25T09:14:38;7.50;99.90
73643;DHT22;61938;48.652;9.292;2023-04-25T09:17:04;7.50;99.90
73643;DHT22;61938;48.652;9.292;2023-04-25T09:19:37;7.40;99.90
73643;DHT22;61938;48.652;9.292;2023-04-25T09:22:05;7.40;99.90
73643;DHT22;61938;48.652;9.292;2023-04-25T09:24:38;7.40;99.90
73643;DHT22;61938;48.652;9.292;2023-04-25T09:27:10;7.50;99.90
73643;DHT22;61938;48.652;9.292;2023-04-25T09:29:37;7.50;99.90
73643;DHT22;61938;48.652;9.292;2023-04-25T09:32:21;7.50;99.90
73643;DHT22;61938;48.652;9.292;2023-04-25T09:34:48;7.50;99.90
73643;DHT22;61938;48.652;9.292;2023-04-25T09:37:33;7.50;99.90
73643;DHT22;61938;48.652;9.292;2023-04-25T09:40:00;7.40;99.90
73643;DHT22;61938;48.652;9.292;2023-04-25T09:42:28;7.40;99.90
73643;DHT22;61938;48.652;9.292;2023-04-25T09:44:56;7.40;99.90
73643;DHT22;61938;48.652;9.292;2023-04-25T09:47:24;7.40;99.90
73643;DHT22;61938;48.652;9.292;2023-04-25T09:49:51;7.40;99.90
73643;DHT22;61938;48.652;9.292;2023-04-25T09:52:18;7.40;99.90
73643;DHT22;61938;48.652;9.292;2023-04-25T09:54:45;7.40;99.90
73643;DHT22;61938;48.652;9.292;2023-04-25T09:57:14;7.40;99.90
73643;DHT22;61938;48.652;9.292;2023-04-25T09:59:50;7.30;99.90
73643;DHT22;61938;48.652;9.292;2023-04-25T10:02:17;7.20;99.90
73643;DHT22;61938;48.652;9.292;2023-04-25T10:04:48;7.20;99.90
73643;DHT22;61938;48.652;9.292;2023-04-25T10:07:14;7.20;99.90
73643;DHT22;61938;48.652;9.292;2023-04-25T10:09:40;7.20;99.90
73643;DHT22;61938;48.652;9.292;2023-04-25T10:12:06;7.20;99.90
73643;DHT22;61938;48.652;9.292;2023-04-25T10:14:33;7.20;99.90
73643;DHT22;61938;48.652;9.292;2023-04-25T10:16:59;7.10;99.90
73643;DHT22;61938;48.652;9.292;2023-04-25T10:19:26;7.20;99.90
73643;DHT22;61938;48.652;9.292;2023-04-25T10:22:01;7.20;99.90
73643;DHT22;61938;48.652;9.292;2023-04-25T10:24:27;7.10;99.90
73643;DHT22;61938;48.652;9.292;2023-04-25T10:26:53;7.10;99.90
73643;DHT22;61938;48.652;9.292;2023-04-25T10:29:24;7.00;99.90
73643;DHT22;61938;48.652;9.292;2023-04-25T10:31:49;7.00;99.90
73643;DHT22;61938;48.652;9.292;2023-04-25T10:34:16;7.00;99.90
73643;DHT22;61938;48.652;9.292;2023-04-25T10:36:42;6.90;99.90
73643;DHT22;61938;48.652;9.292;2023-04-25T10:39:08;6.90;99.90
73643;DHT22;61938;48.652;9.292;2023-04-25T10:41:47;6.90;99.90
73643;DHT22;61938;48.652;9.292;2023-04-25T10:44:13;6.80;99.90
73643;DHT22;61938;48.652;9.292;2023-04-25T10:46:39;6.70;99.90
73643;DHT22;61938;48.652;9.292;2023-04-25T10:49:08;6.70;99.90
73643;DHT22;61938;48.652;9.292;2023-04-25T10:51:36;6.70;99.90
73643;DHT22;61938;48.652;9.292;2023-04-25T10:54:03;6.60;99.90
73643;DHT22;61938;48.652;9.292;2023-04-25T10:56:31;6.60;99.90
73643;DHT22;61938;48.652;9.292;2023-04-25T10:59:19;6.60;99.90
73643;DHT22;61938;48.652;9.292;2023-04-25T11:01:47;6.60;99.90
73643;DHT22;61938;48.652;9.292;2023-04-25T11:04:30;6.50;99.90
73643;DHT22;61938;48.652;9.292;2023-04-25T11:07:02;6.60;99.90
73643;DHT22;61938;48.652;9.292;2023-04-25T11:09:32;6.50;99.90
73643;DHT22;61938;48.652;9.292;2023-04-25T11:11:59;6.60;99.90
73643;DHT22;61938;48.652;9.292;2023-04-25T11:14:25;6.50;99.90
73643;DHT22;61938;48.652;9.292;2023-04-25T11:16:55;6.50;99.90
73643;DHT22;61938;48.652;9.292;2023-04-25T11:19:23;6.60;99.90
73643;DHT22;61938;48.652;9.292;2023-04-25T11:21:49;6.70;99.90
73643;DHT22;61938;48.652;9.292;2023-04-25T11:24:16;6.80;99.90
73643;DHT22;61938;48.652;9.292;2023-04-25T11:26:43;6.80;99.90
73643;DHT22;61938;48.652;9.292;2023-04-25T11:29:09;6.80;99.90
73643;DHT22;61938;48.652;9.292;2023-04-25T11:31:34;6.80;99.90
73643;DHT22;61938;48.652;9.292;2023-04-25T11:34:00;6.80;99.90
73643;DHT22;61938;48.652;9.292;2023-04-25T11:36:26;6.80;99.90
73643;DHT22;61938;48.652;9.292;2023-04-25T11:38:53;6.80;99.90
73643;DHT22;61938;48.652;9.292;2023-04-25T11:41:19;6.80;99.90
73643;DHT22;61938;48.652;9.292;2023-04-25T11:43:45;6.70;99.90
73643;DHT22;61938;48.652;9.292;2023-04-25T11:46:11;6.70;99.90
73643;DHT22;61938;48.652;9.292;2023-04-25T11:48:40;6.80;99.90
73643;DHT22;61938;48.652;9.292;2023-04-25T11:51:06;6.80;99.90
73643;DHT22;61938;48.652;9.292;2023-04-25T11:53:32;6.90;99.90
73643;DHT22;61938;48.652;9.292;2023-04-25T11:55:57;7.00;99.90
73643;DHT22;61938;48.652;9.292;2023-04-25T11:58:23;7.10;99.90
73643;DHT22;61938;48.652;9.292;2023-04-25T12:00:49;7.20;99.90
73643;DHT22;61938;48.652;9.292;2023-04-25T12:03:14;7.30;99.90
73643;DHT22;61938;48.652;9.292;2023-04-25T12:05:40;7.40;99.90
73643;DHT22;61938;48.652;9.292;2023-04-25T12:08:12;7.50;99.90
73643;DHT22;61938;48.652;9.292;2023-04-25T12:10:39;7.60;99.90
73643;DHT22;61938;48.652;9.292;2023-04-25T12:13:25;7.80;99.90
73643;DHT22;61938;48.652;9.292;2023-04-25T12:15:51;7.80;99.90
73643;DHT22;61938;48.652;9.292;2023-04-25T12:18:22;7.80;99.90
73643;DHT22;61938;48.652;9.292;2023-04-25T12:20:48;7.90;99.90
73643;DHT22;61938;48.652;9.292;2023-04-25T12:23:13;7.90;99.90
73643;DHT22;61938;48.652;9.292;2023-04-25T12:25:44;8.00;99.90
73643;DHT22;61938;48.652;9.292;2023-04-25T12:30:58;8.00;99.90
73643;DHT22;61938;48.652;9.292;2023-04-25T12:33:25;8.00;99.90
73643;DHT22;61938;48.652;9.292;2023-04-25T12:35:52;8.00;99.90
73643;DHT22;61938;48.652;9.292;2023-04-25T12:38:24;7.90;99.90
73643;DHT22;61938;48.652;9.292;2023-04-25T12:40:50;7.80;99.90
73643;DHT22;61938;48.652;9.292;2023-04-25T12:43:16;7.80;99.90
73643;DHT22;61938;48.652;9.292;2023-04-25T12:45:42;7.70;99.90
73643;DHT22;61938;48.652;9.292;2023-04-25T12:48:08;7.80;99.90
73643;DHT22;61938;48.652;9.292;2023-04-25T12:50:33;7.80;99.90
73643;DHT22;61938;48.652;9.292;2023-04-25T12:52:59;7.80;99.90
73643;DHT22;61938;48.652;9.292;2023-04-25T12:55:25;7.80;99.90
73643;DHT22;61938;48.652;9.292;2023-04-25T12:57:51;7.80;99.90
73643;DHT22;61938;48.652;9.292;2023-04-25T13:00:17;7.80;99.90
73643;DHT22;61938;48.652;9.292;2023-04-25T13:02:45;7.90;99.90
73643;DHT22;61938;48.652;9.292;2023-04-25T13:05:12;8.00;99.90
73643;DHT22;61938;48.652;9.292;2023-04-25T13:07:38;8.00;99.90
73643;DHT22;61938;48.652;9.292;2023-04-25T13:10:04;8.00;99.90
73643;DHT22;61938;48.652;9.292;2023-04-25T13:12:30;8.20;99.90
73643;DHT22;61938;48.652;9.292;2023-04-25T13:14:55;8.40;99.90
73643;DHT22;61938;48.652;9.292;2023-04-25T13:17:21;8.40;99.90
73643;DHT22;61938;48.652;9.292;2023-04-25T13:19:46;8.50;99.90
73643;DHT22;61938;48.652;9.292;2023-04-25T13:22:12;8.60;99.90
73643;DHT22;61938;48.652;9.292;2023-04-25T13:24:40;8.70;99.90
73643;DHT22;61938;48.652;9.292;2023-04-25T13:27:06;8.90;99.90
73643;DHT22;61938;48.652;9.292;2023-04-25T13:29:31;9.10;99.90
73643;DHT22;61938;48.652;9.292;2023-04-25T13:32:00;9.20;99.90
73643;DHT22;61938;48.652;9.292;2023-04-25T13:34:25;9.40;99.90
73643;DHT22;61938;48.652;9.292;2023-04-25T13:36:51;9.60;99.90
73643;DHT22;61938;48.652;9.292;2023-04-25T13:39:17;9.70;99.90
73643;DHT22;61938;48.652;9.292;2023-04-25T13:41:42;9.40;99.90
73643;DHT22;61938;48.652;9.292;2023-04-25T13:44:07;9.30;99.90
73643;DHT22;61938;48.652;9.292;2023-04-25T13:46:33;9.20;99.90
73643;DHT22;61938;48.652;9.292;2023-04-25T13:48:59;9.20;99.90
73643;DHT22;61938;48.652;9.292;2023-04-25T13:51:24;9.30;99.90
73643;DHT22;61938;48.652;9.292;2023-04-25T13:53:51;9.20;99.90
73643;DHT22;61938;48.652;9.292;2023-04-25T13:56:16;9.20;99.90
73643;DHT22;61938;48.652;9.292;2023-04-25T13:58:44;9.30;99.90
73643;DHT22;61938;48.652;9.292;2023-04-25T14:01:10;9.50;99.90
73643;DHT22;61938;48.652;9.292;2023-04-25T14:03:36;9.70;99.90
73643;DHT22;61938;48.652;9.292;2023-04-25T14:06:01;9.80;99.90
73643;DHT22;61938;48.652;9.292;2023-04-25T14:08:27;9.90;99.90
73643;DHT22;61938;48.652;9.292;2023-04-25T14:10:54;9.90;99.90
73643;DHT22;61938;48.652;9.292;2023-04-25T14:13:19;9.60;99.90
73643;DHT22;61938;48.652;9.292;2023-04-25T14:15:45;9.70;99.90
73643;DHT22;61938;48.652;9.292;2023-04-25T14:18:10;9.60;99.90
73643;DHT22;61938;48.652;9.292;2023-04-25T14:20:36;9.50;99.90
73643;DHT22;61938;48.652;9.292;2023-04-25T14:23:02;9.60;99.90
73643;DHT22;61938;48.652;9.292;2023-04-25T14:25:29;9.70;99.90
73643;DHT22;61938;48.652;9.292;2023-04-25T14:27:55;9.70;99.90
73643;DHT22;61938;48.652;9.292;2023-04-25T14:30:21;9.60;99.90
73643;DHT22;61938;48.652;9.292;2023-04-25T14:32:51;9.50;99.90
73643;DHT22;61938;48.652;9.292;2023-04-25T14:35:17;9.40;99.90
73643;DHT22;61938;48.652;9.292;2023-04-25T14:37:42;9.20;99.90
73643;DHT22;61938;48.652;9.292;2023-04-25T14:40:08;9.20;99.90
73643;DHT22;61938;48.652;9.292;2023-04-25T14:42:36;9.30;99.90
73643;DHT22;61938;48.652;9.292;2023-04-25T14:45:04;9.60;99.90
73643;DHT22;61938;48.652;9.292;2023-04-25T14:47:30;9.80;99.90
73643;DHT22;61938;48.652;9.292;2023-04-25T14:49:56;10.00;99.90
73643;DHT22;61938;48.652;9.292;2023-04-25T14:52:22;10.20;99.90
73643;DHT22;61938;48.652;9.292;2023-04-25T14:54:48;10.20;99.90
73643;DHT22;61938;48.652;9.292;2023-04-25T14:57:14;10.10;99.90
73643;DHT22;61938;48.652;9.292;2023-04-25T14:59:39;10.10;99.90
73643;DHT22;61938;48.652;9.292;2023-04-25T15:02:05;10.00;99.90
73643;DHT22;61938;48.652;9.292;2023-04-25T15:04:31;10.20;99.90
73643;DHT22;61938;48.652;9.292;2023-04-25T15:06:56;10.10;99.90
73643;DHT22;61938;48.652;9.292;2023-04-25T15:09:22;10.10;99.90
73643;DHT22;61938;48.652;9.292;2023-04-25T15:11:49;10.20;99.90
73643;DHT22;61938;48.652;9.292;2023-04-25T15:14:17;10.30;99.90
73643;DHT22;61938;48.652;9.292;2023-04-25T15:16:42;10.40;99.90
73643;DHT22;61938;48.652;9.292;2023-04-25T15:19:08;10.40;99.90
73643;DHT22;61938;48.652;9.292;2023-04-25T15:21:33;10.40;99.90
73643;DHT22;61938;48.652;9.292;2023-04-25T15:23:59;10.30;99.90
73643;DHT22;61938;48.652;9.292;2023-04-25T15:26:26;10.30;99.90
73643;DHT22;61938;48.652;9.292;2023-04-25T15:28:52;10.20;99.90
73643;DHT22;61938;48.652;9.292;2023-04-25T15:31:18;10.20;99.90
73643;DHT22;61938;48.652;9.292;2023-04-25T15:33:43;10.20;99.90
73643;DHT22;61938;48.652;9.292;2023-04-25T15:36:09;10.20;99.90
73643;DHT22;61938;48.652;9.292;2023-04-25T15:38:35;10.20;99.90
73643;DHT22;61938;48.652;9.292;2023-04-25T15:41:01;10.30;99.90
73643;DHT22;61938;48.652;9.292;2023-04-25T15:43:26;10.30;99.90